Strona główna
METAR-TAF:

METAR-TAF

Lotnisko :

Valley, Walia

Szerokość geograficzna: 53-15N, Długość geograficzna: 004-32W, wysokość: 1 m

Aktualna obserwacja pogody

Raport powstał 1 godzina i 7 minut temu, godzina 05:50 UTC
Wiatr 6 kt od północ
Temperatura 7°C
Wilgotność 76%
Ciśnienie 1027 hPa
Widzialność 10 km lub więcej

METAR: EGOV 010550Z AUTO 35006KT 9999 BKN046/// 07/03 Q1027

czas: 07:57 (06:57 UTC)

Prognoza

Raport powstał 20 godziny i 28 minut temu, godzina 10:29 UTC
Prognoza ważna od 31 godzina 12 UTC do 31 godzina 17 UTC
Wiatr 10 kt od północny wschód
Widzialność 10 km lub więcej
Mało chmury na wysokości 2500 ft

TAF: EGOV 311029Z 3112/3117 04010KT 9999 FEW025

Obserwacja i prognoza pogody dla ponad 4000 lotnisk (raport METAR i TAF).

Dostępne stacje oznaczono żółtymi i czerwonymi punktami na mapie.

Najedź kursorem aby zobaczyć nazwę stacji.

Kliknij aby zobaczyć obserwacje i prognozy pogody.

Aby zmienić mapę: kliknij na zielony przycisk z czarnym krzyżykiem, aby powiększyć; na zielony przycisk z myślnikiem, aby pomniejszyć; na zielone strzałki, aby przejść do map sąsiednich.


METAR-TAF: